Time;durP1;ratioP1;P1;durP2;ratioP2;P2;SDS_P1;SDS_P2;PMS_P1;PMS_P2;Temp;Humidity;BMP_temperature;BMP_pressure;BME280_temperature;BME280_humidity;BME280_pressure;Samples;Min_cycle;Max_cycle;Signal;HPM_P1;HPM_P2
2021/12/01 00:00:07;;;;;;;4.70;4.40;;;10.60;99.90;;;;;;5004761;28;20645;-79
2021/12/01 00:02:34;;;;;;;3.93;3.47;;;10.60;99.90;;;;;;5006424;28;20260;-80
2021/12/01 00:05:20;;;;;;;5.53;3.80;;;10.50;99.90;;;;;;5008705;28;20319;-80
2021/12/01 00:08:23;;;;;;;4.70;4.30;;;10.50;99.90;;;;;;5013500;28;20430;-80
2021/12/01 00:10:54;;;;;;;4.50;3.93;;;10.50;99.90;;;;;;5017803;28;20264;-80
2021/12/01 00:13:28;;;;;;;3.80;3.50;;;10.40;99.90;;;;;;5016668;28;20272;-80
2021/12/01 00:16:01;;;;;;;4.43;4.07;;;10.40;99.90;;;;;;5018041;28;20196;-80
2021/12/01 00:18:49;;;;;;;4.30;4.00;;;10.30;99.90;;;;;;5015858;28;20201;-81
2021/12/01 00:21:28;;;;;;;3.80;3.60;;;10.20;99.90;;;;;;5015010;28;20295;-80
2021/12/01 00:24:12;;;;;;;4.63;4.27;;;10.20;99.90;;;;;;4997257;28;20695;-81
2021/12/01 00:26:41;;;;;;;4.07;3.77;;;10.20;99.90;;;;;;5014353;28;20180;-80
2021/12/01 00:29:15;;;;;;;4.50;3.83;;;10.20;99.90;;;;;;5013790;28;20212;-80
2021/12/01 00:31:50;;;;;;;3.47;3.27;;;10.30;99.90;;;;;;4997001;28;20669;-80
2021/12/01 00:34:23;;;;;;;3.57;3.27;;;10.30;99.90;;;;;;5014753;28;20220;-80
2021/12/01 00:37:02;;;;;;;3.30;3.10;;;10.30;99.90;;;;;;5013334;28;20221;-80
2021/12/01 00:39:32;;;;;;;2.53;2.30;;;10.30;99.90;;;;;;5013071;28;20196;-80
2021/12/01 00:42:04;;;;;;;2.97;2.77;;;10.20;99.90;;;;;;5012317;28;20235;-80
2021/12/01 00:44:45;;;;;;;2.50;2.30;;;10.20;99.90;;;;;;5014361;28;20224;-80
2021/12/01 00:47:13;;;;;;;2.50;2.30;;;10.10;99.90;;;;;;5017533;28;20676;-80
2021/12/01 00:50:26;;;;;;;2.40;2.20;;;10.10;99.90;;;;;;5017366;28;20632;-79
2021/12/01 00:53:04;;;;;;;2.30;2.20;;;10.10;99.90;;;;;;4996143;28;20247;-80
2021/12/01 00:55:48;;;;;;;2.73;2.43;;;9.90;99.90;;;;;;5013829;28;20209;-81
2021/12/01 00:58:30;;;;;;;3.10;2.40;;;9.90;99.90;;;;;;5012067;28;20276;-80
2021/12/01 01:00:58;;;;;;;2.60;2.40;;;9.90;99.90;;;;;;5012829;28;20211;-80
2021/12/01 01:03:40;;;;;;;3.07;2.63;;;9.90;99.90;;;;;;5014448;28;20615;-81
2021/12/01 01:06:11;;;;;;;3.10;2.50;;;9.80;99.90;;;;;;4981895;28;20232;-80
2021/12/01 01:08:42;;;;;;;2.70;2.50;;;9.80;99.90;;;;;;5012033;28;21117;-79
2021/12/01 01:17:18;;;;;;;2.27;2.17;;;9.80;99.90;;;;;;5015916;28;20253;-81
2021/12/01 01:20:04;;;;;;;2.50;2.30;;;9.70;99.90;;;;;;5020212;28;20248;-81
2021/12/01 01:22:47;;;;;;;2.70;2.53;;;9.70;99.90;;;;;;5020408;28;20220;-82
2021/12/01 01:25:26;;;;;;;2.97;2.77;;;9.70;99.90;;;;;;5019299;28;20228;-81
2021/12/01 01:28:12;;;;;;;2.60;2.40;;;9.70;99.90;;;;;;5019142;28;20200;-81
2021/12/01 01:30:52;;;;;;;2.50;2.30;;;9.70;99.90;;;;;;5019679;28;20197;-82
2021/12/01 01:33:27;;;;;;;2.40;2.20;;;9.60;99.90;;;;;;5002974;28;20613;-81
2021/12/01 01:36:06;;;;;;;3.03;2.93;;;9.60;99.90;;;;;;5017905;28;20199;-81
2021/12/01 01:38:46;;;;;;;2.97;2.70;;;9.60;99.90;;;;;;5002883;28;20197;-81
2021/12/01 01:41:40;;;;;;;3.20;2.90;;;9.50;99.90;;;;;;5018661;28;20215;-80
2021/12/01 01:44:22;;;;;;;2.70;2.60;;;9.60;99.90;;;;;;5019806;28;20201;-81
2021/12/01 01:46:55;;;;;;;2.50;2.40;;;9.50;99.90;;;;;;5018717;28;20204;-81
2021/12/01 01:52:49;;;;;;;2.80;2.60;;;9.50;99.90;;;;;;5019303;28;20219;-81
2021/12/01 01:55:18;;;;;;;2.80;2.60;;;9.50;99.90;;;;;;5001603;28;20197;-81
2021/12/01 01:58:26;;;;;;;2.70;2.50;;;9.50;99.90;;;;;;5018474;28;20220;-81
2021/12/01 02:01:11;;;;;;;2.70;2.50;;;9.50;99.90;;;;;;5018802;28;20239;-82
2021/12/01 02:03:48;;;;;;;2.30;2.20;;;9.50;99.90;;;;;;5019629;28;20169;-81
2021/12/01 02:06:26;;;;;;;2.60;2.50;;;9.40;99.90;;;;;;5018695;28;20208;-80
2021/12/01 02:09:08;;;;;;;2.60;2.40;;;9.40;99.90;;;;;;5016080;28;20251;-81
2021/12/01 02:12:06;;;;;;;2.87;2.67;;;9.40;99.90;;;;;;5001099;28;20239;-80
2021/12/01 02:15:00;;;;;;;2.83;2.63;;;9.40;99.90;;;;;;5018288;28;20180;-80
2021/12/01 02:17:41;;;;;;;2.97;2.77;;;9.40;99.90;;;;;;5025509;28;20246;-80
2021/12/01 02:20:19;;;;;;;3.27;3.07;;;9.30;99.90;;;;;;5035924;28;20207;-80
2021/12/01 02:22:51;;;;;;;3.17;2.90;;;9.30;99.90;;;;;;5034000;28;20218;-81
2021/12/01 02:25:30;;;;;;;4.87;3.00;;;9.30;99.90;;;;;;5018202;28;20204;-81
2021/12/01 02:28:02;;;;;;;4.83;3.47;;;9.30;99.90;;;;;;5036487;28;20208;-81
2021/12/01 02:30:36;;;;;;;3.40;3.20;;;9.20;99.90;;;;;;5035032;28;20196;-82
2021/12/01 02:33:06;;;;;;;3.17;2.87;;;9.20;99.90;;;;;;5037468;28;20250;-82
2021/12/01 02:35:50;;;;;;;3.40;3.20;;;9.20;99.90;;;;;;5037642;28;20187;-82
2021/12/01 02:38:27;;;;;;;4.17;3.80;;;9.20;99.90;;;;;;5019632;28;20238;-82
2021/12/01 02:40:59;;;;;;;4.13;3.80;;;9.10;99.90;;;;;;5020907;28;20203;-82
2021/12/01 02:43:47;;;;;;;5.70;5.07;;;9.20;99.90;;;;;;5034741;28;20294;-81
2021/12/01 02:46:24;;;;;;;4.33;4.03;;;9.10;99.90;;;;;;5031632;28;20195;-81
2021/12/01 02:49:10;;;;;;;4.30;4.07;;;9.10;99.90;;;;;;5034684;28;20223;-80
2021/12/01 02:52:10;;;;;;;4.47;4.17;;;9.00;99.90;;;;;;5034588;28;20211;-81
2021/12/01 02:54:45;;;;;;;4.70;4.23;;;9.00;99.90;;;;;;5020041;28;20235;-81
2021/12/01 02:57:13;;;;;;;5.77;4.33;;;9.10;99.90;;;;;;5004418;28;20195;-81
2021/12/01 03:00:13;;;;;;;4.40;4.10;;;9.10;99.90;;;;;;5017688;28;20204;-80
2021/12/01 03:02:53;;;;;;;5.07;4.67;;;9.10;99.90;;;;;;5033907;28;20192;-83
2021/12/01 03:05:23;;;;;;;5.53;4.40;;;9.20;99.90;;;;;;5036173;28;20217;-82
2021/12/01 03:08:00;;;;;;;5.33;4.57;;;9.10;99.90;;;;;;5034880;28;20204;-82
2021/12/01 03:10:33;;;;;;;4.37;4.00;;;9.00;99.90;;;;;;5037124;28;20200;-81
2021/12/01 03:13:05;;;;;;;5.10;4.60;;;9.00;99.90;;;;;;5036997;28;20239;-82
2021/12/01 03:15:44;;;;;;;4.30;3.90;;;8.90;99.90;;;;;;5020602;28;20231;-82
2021/12/01 03:18:37;;;;;;;4.77;3.83;;;9.00;99.90;;;;;;5004197;28;20187;-80
2021/12/01 03:21:12;;;;;;;4.67;4.27;;;9.00;99.90;;;;;;5031291;28;20207;-81
2021/12/01 03:23:47;;;;;;;4.93;4.30;;;9.00;99.90;;;;;;5033041;28;20200;-80
2021/12/01 03:26:24;;;;;;;6.57;4.23;;;8.90;99.90;;;;;;5031084;28;20203;-80
2021/12/01 03:28:52;;;;;;;4.73;3.70;;;8.90;99.90;;;;;;5028756;28;20200;-80
2021/12/01 03:31:20;;;;;;;3.97;3.57;;;9.00;99.90;;;;;;5030004;28;20291;-80
2021/12/01 03:33:48;;;;;;;4.73;4.10;;;9.10;99.90;;;;;;5024815;28;20687;-80
2021/12/01 03:36:26;;;;;;;3.73;3.50;;;9.00;99.90;;;;;;5022427;28;20203;-79
2021/12/01 03:38:55;;;;;;;4.55;4.15;;;8.90;99.90;;;;;;5003041;28;20519;-79
2021/12/01 03:41:22;;;;;;;4.87;3.53;;;9.00;99.90;;;;;;5019987;28;20298;-79
2021/12/01 03:44:02;;;;;;;4.30;3.53;;;8.90;99.90;;;;;;5019785;28;20216;-80
2021/12/01 03:46:30;;;;;;;3.80;3.27;;;8.90;99.90;;;;;;5025926;28;20207;-80
2021/12/01 03:49:03;;;;;;;3.57;3.27;;;8.90;99.90;;;;;;5028023;28;20208;-80
2021/12/01 03:51:32;;;;;;;5.60;3.70;;;8.90;99.90;;;;;;5029089;28;20200;-80
2021/12/01 03:54:09;;;;;;;4.47;4.10;;;8.90;99.90;;;;;;5013942;28;20231;-80
2021/12/01 03:56:42;;;;;;;5.27;4.80;;;8.90;99.90;;;;;;5024111;28;20223;-79
2021/12/01 03:59:19;;;;;;;6.77;4.90;;;8.90;99.90;;;;;;5020096;28;20203;-80
2021/12/01 04:01:48;;;;;;;5.03;4.47;;;8.80;99.90;;;;;;5020608;28;20212;-78
2021/12/01 04:04:16;;;;;;;3.90;3.60;;;8.80;99.90;;;;;;5006409;28;20277;-80
2021/12/01 04:06:49;;;;;;;4.10;3.70;;;8.90;99.90;;;;;;5009484;28;20280;-80
2021/12/01 04:09:33;;;;;;;3.90;3.70;;;8.80;99.90;;;;;;5015107;28;20269;-80
2021/12/01 04:12:11;;;;;;;3.97;3.07;;;8.90;99.90;;;;;;5031932;28;20208;-80
2021/12/01 04:14:41;;;;;;;4.10;3.73;;;8.70;99.90;;;;;;5028934;28;20246;-80
2021/12/01 04:17:14;;;;;;;3.67;3.37;;;8.70;99.90;;;;;;5039055;28;20200;-84
2021/12/01 09:10:52;;;;;;;5.20;1.80;;;9.80;99.90;;;;;;6054421;22;20230;-82
2021/12/01 09:14:09;;;;;;;2.33;1.50;;;9.80;99.90;;;;;;5077405;28;20226;-81
2021/12/01 09:16:50;;;;;;;3.67;1.00;;;9.70;99.90;;;;;;5078541;28;20597;-82
2021/12/01 09:19:22;;;;;;;1.03;0.80;;;9.40;99.90;;;;;;5057832;28;20294;-81
2021/12/01 09:21:51;;;;;;;1.30;1.00;;;9.20;99.90;;;;;;5064289;28;20221;-80
2021/12/01 09:24:20;;;;;;;3.10;1.20;;;9.10;99.90;;;;;;5064535;28;20290;-80
2021/12/01 09:26:53;;;;;;;1.57;0.90;;;9.10;99.90;;;;;;5064340;28;20200;-80
2021/12/01 09:29:22;;;;;;;4.17;1.20;;;9.20;99.90;;;;;;5064037;28;20237;-80
2021/12/01 09:31:55;;;;;;;5.47;1.47;;;9.10;99.90;;;;;;5067161;28;20297;-80
2021/12/01 09:34:27;;;;;;;3.97;1.73;;;9.20;99.90;;;;;;5070766;28;20218;-79
2021/12/01 09:37:00;;;;;;;6.23;1.80;;;9.20;99.90;;;;;;5072639;28;20191;-80
2021/12/01 09:39:45;;;;;;;4.10;1.40;;;9.30;99.90;;;;;;5076482;28;20165;-81
2021/12/01 09:42:22;;;;;;;7.80;2.17;;;9.40;99.90;;;;;;5078856;28;20185;-81
2021/12/01 09:45:06;;;;;;;8.53;1.77;;;9.40;99.90;;;;;;5073388;28;20199;-81
2021/12/01 09:47:36;;;;;;;7.83;2.10;;;9.40;99.90;;;;;;5050070;28;20205;-81
2021/12/01 09:50:18;;;;;;;4.30;2.10;;;9.40;99.90;;;;;;5055028;28;20529;-83
2021/12/01 09:53:10;;;;;;;4.50;1.90;;;9.40;99.90;;;;;;5057190;28;20207;-83
2021/12/01 09:59:20;;;;;;;3.60;1.47;;;9.30;99.90;;;;;;5056976;28;20195;-84
2021/12/01 10:19:44;;;;;;;7.10;2.00;;;9.40;99.90;;;;;;5377104;22;20242;-84
2021/12/01 10:34:53;;;;;;;6.13;1.67;;;9.20;99.90;;;;;;5066519;28;20230;-84
2021/12/01 10:41:36;;;;;;;7.00;1.70;;;9.20;99.90;;;;;;5078746;28;20206;-87
2021/12/01 11:19:44;;;;;;;3.17;1.00;;;9.60;99.90;;;;;;5281558;22;20242;-85
2021/12/01 11:36:05;;;;;;;2.43;0.87;;;9.60;99.90;;;;;;5281075;22;20226;-85
2021/12/01 11:44:01;;;;;;;2.57;1.10;;;9.50;99.90;;;;;;5203077;22;20260;-84
2021/12/01 11:52:29;;;;;;;3.90;1.13;;;9.80;99.90;;;;;;5390190;22;20218;-86
2021/12/01 11:58:45;;;;;;;5.07;1.30;;;9.70;99.90;;;;;;5092000;28;20213;-81
2021/12/01 12:02:03;;;;;;;2.03;1.10;;;9.60;99.90;;;;;;5076721;28;20206;-85
2021/12/01 12:04:49;;;;;;;7.23;1.90;;;9.80;99.90;;;;;;5093079;28;20280;-86
2021/12/01 12:07:45;;;;;;;4.18;1.60;;;9.70;99.90;;;;;;5095748;28;20424;-86
2021/12/01 12:10:33;;;;;;;7.37;1.17;;;9.60;99.90;;;;;;5098916;28;20201;-85
2021/12/01 12:13:08;;;;;;;4.17;1.70;;;9.60;99.90;;;;;;5079817;28;20229;-80
2021/12/01 12:15:52;;;;;;;6.30;2.00;;;9.70;99.90;;;;;;5077238;28;20254;-78
2021/12/01 12:18:49;;;;;;;4.70;1.30;;;9.70;99.90;;;;;;5067725;28;20207;-79
2021/12/01 12:21:22;;;;;;;4.70;1.10;;;9.80;99.90;;;;;;5031546;28;20654;-78
2021/12/01 12:24:06;;;;;;;3.80;1.00;;;9.80;99.90;;;;;;5062769;28;20260;-79
2021/12/01 12:26:43;;;;;;;3.63;1.33;;;9.80;99.90;;;;;;5062166;28;20229;-79
2021/12/01 12:29:13;;;;;;;8.43;2.07;;;9.80;99.90;;;;;;5062237;28;20290;-80
2021/12/01 12:31:42;;;;;;;4.40;1.63;;;9.80;99.90;;;;;;5065238;28;20191;-79
2021/12/01 12:34:20;;;;;;;5.37;1.40;;;9.80;99.90;;;;;;5065268;28;20341;-79
2021/12/01 12:36:55;;;;;;;6.60;1.80;;;9.80;99.90;;;;;;5063718;28;20509;-80
2021/12/01 12:39:27;;;;;;;5.10;1.50;;;9.90;99.90;;;;;;5063170;28;20206;-79
2021/12/01 12:42:12;;;;;;;8.00;1.90;;;9.90;99.90;;;;;;5061573;28;20202;-79
2021/12/01 12:44:50;;;;;;;3.47;1.10;;;9.90;99.90;;;;;;5048168;28;20202;-80
2021/12/01 12:47:30;;;;;;;4.73;1.60;;;9.90;99.90;;;;;;5070078;28;20233;-79
2021/12/01 12:50:12;;;;;;;7.53;1.10;;;9.90;99.90;;;;;;5085928;28;20208;-80
2021/12/01 12:52:41;;;;;;;5.13;1.50;;;9.90;99.90;;;;;;5083883;28;20252;-80
2021/12/01 12:55:38;;;;;;;2.43;0.87;;;9.80;99.90;;;;;;5092445;28;20237;-80
2021/12/01 12:58:06;;;;;;;4.70;0.87;;;9.70;99.90;;;;;;5093004;28;20221;-80
2021/12/01 13:00:40;;;;;;;2.73;1.03;;;9.70;99.90;;;;;;5092787;28;20768;-80
2021/12/01 13:03:34;;;;;;;3.03;1.00;;;9.70;99.90;;;;;;5077705;28;20233;-81
2021/12/01 13:06:08;;;;;;;4.95;1.40;;;9.70;99.90;;;;;;5094568;28;20491;-80
2021/12/01 13:08:40;;;;;;;2.40;1.10;;;9.70;99.90;;;;;;5094203;28;20292;-80
2021/12/01 13:11:16;;;;;;;5.47;1.37;;;9.60;99.90;;;;;;5088566;28;20201;-80
2021/12/01 13:13:56;;;;;;;9.63;1.50;;;9.50;99.90;;;;;;5069726;28;20694;-80
2021/12/01 13:16:32;;;;;;;5.90;1.70;;;9.60;99.90;;;;;;5090527;28;20229;-80
2021/12/01 13:19:07;;;;;;;6.30;1.87;;;9.50;99.90;;;;;;5087514;28;20707;-80
2021/12/01 13:21:58;;;;;;;7.13;1.47;;;9.40;99.90;;;;;;5070756;28;20212;-80
2021/12/01 13:24:26;;;;;;;6.43;1.57;;;9.30;99.90;;;;;;5087739;28;20283;-80
2021/12/01 13:27:09;;;;;;;10.30;1.83;;;9.30;99.90;;;;;;5076646;28;20225;-81
2021/12/01 13:29:39;;;;;;;4.87;1.37;;;9.30;99.90;;;;;;5094319;28;20224;-81
2021/12/01 13:32:26;;;;;;;4.77;1.60;;;9.20;99.90;;;;;;5097581;28;20198;-81
2021/12/01 13:35:07;;;;;;;9.25;2.35;;;9.10;99.90;;;;;;5097091;28;20450;-81
2021/12/01 13:38:01;;;;;;;7.57;1.80;;;9.20;99.90;;;;;;5097253;28;20205;-81
2021/12/01 13:40:39;;;;;;;5.63;1.70;;;9.30;99.90;;;;;;5076067;28;20231;-81
2021/12/01 13:43:33;;;;;;;8.10;1.83;;;9.10;99.90;;;;;;5095806;28;20193;-82
2021/12/01 13:46:23;;;;;;;8.23;1.90;;;9.00;99.90;;;;;;5076951;28;20204;-82
2021/12/01 13:49:01;;;;;;;9.13;1.80;;;9.00;99.90;;;;;;5076116;28;20194;-80
2021/12/01 13:51:34;;;;;;;11.03;2.23;;;9.00;99.90;;;;;;5092830;28;20201;-81
2021/12/01 13:54:32;;;;;;;5.87;1.87;;;9.00;99.90;;;;;;5075478;28;20265;-81
2021/12/01 13:57:27;;;;;;;9.97;2.20;;;9.00;99.90;;;;;;5093670;28;20209;-81
2021/12/01 14:00:08;;;;;;;9.43;2.03;;;9.00;99.90;;;;;;5074271;28;20221;-81
2021/12/01 14:02:43;;;;;;;7.53;1.80;;;8.90;99.90;;;;;;5075226;28;20190;-81
2021/12/01 14:06:03;;;;;;;14.40;2.37;;;8.90;99.90;;;;;;5097475;28;20212;-81
2021/12/01 14:36:00;;;;;;;7.60;2.93;;;8.90;99.90;;;;;;5085089;22;20261;-86
2021/12/01 14:38:51;;;;;;;10.73;2.80;;;8.90;99.90;;;;;;5075173;28;20209;-86
2021/12/01 15:12:33;;;;;;;11.97;2.57;;;8.90;99.90;;;;;;5076788;28;20237;-82
2021/12/01 15:15:26;;;;;;;10.37;2.87;;;8.80;99.90;;;;;;5077538;28;20218;-82
2021/12/01 15:18:39;;;;;;;9.50;2.10;;;8.70;99.90;;;;;;5074696;28;20213;-83
2021/12/01 15:21:19;;;;;;;16.30;2.90;;;8.70;99.90;;;;;;5067120;28;20195;-79
2021/12/01 15:23:50;;;;;;;7.43;2.13;;;8.50;99.90;;;;;;5060083;28;20198;-79
2021/12/01 15:26:21;;;;;;;11.00;2.00;;;8.30;99.90;;;;;;5060004;28;20213;-79
2021/12/01 15:28:53;;;;;;;17.00;4.33;;;8.30;99.90;;;;;;5058813;28;20194;-78
2021/12/01 15:31:25;;;;;;;15.47;4.03;;;8.20;99.90;;;;;;5055695;28;20618;-78
2021/12/01 15:33:53;;;;;;;14.18;3.40;;;8.10;99.90;;;;;;5056119;28;20513;-78
2021/12/01 15:36:20;;;;;;;8.73;2.90;;;8.20;99.90;;;;;;5054662;28;20609;-78
2021/12/01 15:38:47;;;;;;;11.93;3.57;;;8.10;99.90;;;;;;5054505;28;20657;-78
2021/12/01 15:41:14;;;;;;;13.60;2.40;;;8.10;99.90;;;;;;5053796;28;20198;-79
2021/12/01 15:43:41;;;;;;;9.07;2.77;;;8.10;99.90;;;;;;5056443;28;20273;-78
2021/12/01 15:46:09;;;;;;;12.07;3.53;;;8.20;99.90;;;;;;5055390;28;20205;-78
2021/12/01 15:48:37;;;;;;;12.27;3.17;;;8.20;99.90;;;;;;5060209;28;20284;-78
2021/12/01 15:51:04;;;;;;;9.53;2.63;;;8.20;99.90;;;;;;5062357;28;20221;-79
2021/12/01 15:53:31;;;;;;;10.43;3.07;;;8.20;99.90;;;;;;5060536;28;20203;-79
2021/12/01 15:56:02;;;;;;;9.03;2.50;;;8.20;99.90;;;;;;5059979;28;20257;-78
2021/12/01 16:01:22;;;;;;;9.10;2.43;;;8.30;99.90;;;;;;5066488;28;20205;-78
2021/12/01 16:03:53;;;;;;;8.27;2.85;;;8.30;99.90;;;;;;5064011;28;20493;-80
2021/12/01 16:06:30;;;;;;;14.47;2.83;;;8.30;99.90;;;;;;5067519;28;20194;-83
2021/12/01 16:09:06;;;;;;;6.83;1.93;;;8.30;99.90;;;;;;5071081;28;20214;-81
2021/12/01 16:11:34;;;;;;;9.63;2.50;;;8.20;99.90;;;;;;5073081;28;20194;-80
2021/12/01 16:14:19;;;;;;;10.63;2.70;;;8.30;99.90;;;;;;5073670;28;20242;-80
2021/12/01 16:16:51;;;;;;;11.17;2.60;;;8.20;99.90;;;;;;5073181;28;20222;-80
2021/12/01 16:19:28;;;;;;;15.53;3.50;;;8.20;99.90;;;;;;5072953;28;20255;-80
2021/12/01 16:22:02;;;;;;;9.17;2.67;;;8.20;99.90;;;;;;5069670;28;20206;-81
2021/12/01 16:24:30;;;;;;;10.87;2.70;;;8.20;99.90;;;;;;5069815;28;20237;-79
2021/12/01 16:27:04;;;;;;;18.33;2.93;;;8.20;99.90;;;;;;5071361;28;20626;-81
2021/12/01 16:29:31;;;;;;;8.95;2.72;;;8.20;99.90;;;;;;5064541;28;20440;-81
2021/12/01 16:32:01;;;;;;;10.83;2.90;;;8.20;99.90;;;;;;5066386;28;20256;-80
2021/12/01 16:34:47;;;;;;;8.03;2.40;;;8.20;99.90;;;;;;5064720;28;20211;-79
2021/12/01 16:37:23;;;;;;;7.30;2.10;;;8.20;99.90;;;;;;5055360;28;20246;-82
2021/12/01 16:39:54;;;;;;;6.63;1.90;;;8.00;99.90;;;;;;5030356;28;20195;-81
2021/12/01 16:42:29;;;;;;;7.17;2.40;;;7.90;99.90;;;;;;5048781;28;20200;-81
2021/12/01 16:45:01;;;;;;;11.20;2.20;;;7.90;99.90;;;;;;5050143;28;20234;-82
2021/12/01 16:47:31;;;;;;;11.47;2.80;;;7.80;99.90;;;;;;5030709;28;20199;-80
2021/12/01 16:50:00;;;;;;;7.43;2.57;;;7.90;99.90;;;;;;5052820;28;20203;-80
2021/12/01 16:52:47;;;;;;;13.20;2.90;;;7.90;99.90;;;;;;5064724;28;20218;-80
2021/12/01 16:55:30;;;;;;;7.33;1.60;;;8.00;99.90;;;;;;5053496;28;20604;-80
2021/12/01 16:58:01;;;;;;;2.37;1.03;;;7.70;99.90;;;;;;5068117;28;20199;-81
2021/12/01 17:00:30;;;;;;;3.43;1.10;;;7.40;99.90;;;;;;5064698;28;20190;-81
2021/12/01 17:03:06;;;;;;;5.90;1.37;;;7.10;99.90;;;;;;5071031;28;20218;-80
2021/12/01 17:05:46;;;;;;;2.73;1.40;;;6.90;99.90;;;;;;5057811;28;20274;-81
2021/12/01 17:08:27;;;;;;;3.77;1.20;;;6.70;99.90;;;;;;5068701;28;20209;-81
2021/12/01 17:11:01;;;;;;;1.10;1.00;;;6.70;99.90;;;;;;5070453;28;20221;-81
2021/12/01 17:13:30;;;;;;;7.60;1.30;;;6.60;99.90;;;;;;5069409;28;20281;-81
2021/12/01 17:15:59;;;;;;;4.50;1.17;;;6.70;99.90;;;;;;5059659;28;20223;-81
2021/12/01 17:18:30;;;;;;;8.20;1.23;;;6.70;99.90;;;;;;5056760;28;20274;-81
2021/12/01 17:21:13;;;;;;;3.60;1.23;;;6.60;99.90;;;;;;5070263;28;20254;-82
2021/12/01 17:23:44;;;;;;;4.78;1.75;;;6.60;99.90;;;;;;5066018;28;20431;-83
2021/12/01 17:26:14;;;;;;;3.10;1.50;;;6.50;99.90;;;;;;5056613;28;20214;-81
2021/12/01 17:28:47;;;;;;;2.47;1.30;;;6.40;99.90;;;;;;5066802;28;20206;-82
2021/12/01 17:31:20;;;;;;;3.00;1.17;;;6.50;99.90;;;;;;5071914;28;20215;-81
2021/12/01 17:33:51;;;;;;;4.30;1.30;;;6.50;99.90;;;;;;5052197;28;20213;-81
2021/12/01 17:36:25;;;;;;;3.20;0.93;;;6.40;99.90;;;;;;5068678;28;20252;-82
2021/12/01 17:38:55;;;;;;;5.33;2.70;;;6.40;99.90;;;;;;5071269;28;20250;-82
2021/12/01 17:41:26;;;;;;;4.37;1.50;;;6.40;99.90;;;;;;5053514;28;20225;-80
2021/12/01 17:44:09;;;;;;;5.13;1.57;;;6.40;99.90;;;;;;5071903;28;20214;-81
2021/12/01 17:46:42;;;;;;;3.20;1.57;;;6.40;99.90;;;;;;5073656;28;20210;-81
2021/12/01 17:49:12;;;;;;;3.30;1.23;;;6.50;99.90;;;;;;5055891;28;20229;-81
2021/12/01 17:51:48;;;;;;;3.60;1.50;;;6.50;99.90;;;;;;5072287;28;20217;-82
2021/12/01 17:54:18;;;;;;;5.28;1.95;;;6.50;99.90;;;;;;5056212;28;20440;-81
2021/12/01 17:56:53;;;;;;;2.53;1.50;;;6.60;99.90;;;;;;5075158;28;20246;-82
2021/12/01 17:59:39;;;;;;;3.80;1.30;;;6.60;99.90;;;;;;5059161;28;20202;-82
2021/12/01 18:02:15;;;;;;;3.10;1.43;;;6.60;99.90;;;;;;5075638;28;20226;-82
2021/12/01 18:04:45;;;;;;;4.27;1.87;;;6.50;99.90;;;;;;5056919;28;20186;-81
2021/12/01 18:07:13;;;;;;;8.97;2.13;;;6.60;99.90;;;;;;5069803;28;20213;-81
2021/12/01 18:09:44;;;;;;;3.23;1.87;;;6.50;99.90;;;;;;5053522;28;20206;-81
2021/12/01 18:12:19;;;;;;;5.93;2.77;;;6.60;99.90;;;;;;5070842;28;20566;-81
2021/12/01 18:14:48;;;;;;;5.60;2.17;;;6.60;99.90;;;;;;5071821;28;20273;-82
2021/12/01 18:17:26;;;;;;;5.67;2.67;;;6.60;99.90;;;;;;5070554;28;20237;-82
2021/12/01 18:19:56;;;;;;;6.27;2.47;;;6.60;99.90;;;;;;5071907;28;21026;-82
2021/12/01 18:22:27;;;;;;;5.80;1.83;;;6.60;99.90;;;;;;5070926;28;20233;-82
2021/12/01 18:24:57;;;;;;;2.77;1.60;;;6.60;99.90;;;;;;5066435;28;20264;-81
2021/12/01 18:27:26;;;;;;;4.93;2.57;;;6.60;99.90;;;;;;5069213;28;20226;-81
2021/12/01 18:29:53;;;;;;;4.00;2.03;;;6.60;99.90;;;;;;5068864;28;20199;-81
2021/12/01 18:35:31;;;;;;;4.07;2.17;;;6.70;99.90;;;;;;5072658;28;20202;-81
2021/12/01 18:38:06;;;;;;;5.97;2.17;;;6.80;99.90;;;;;;5074480;28;20233;-80
2021/12/01 18:40:44;;;;;;;6.27;2.97;;;6.80;99.90;;;;;;5077076;28;20222;-81
2021/12/01 18:43:57;;;;;;;3.13;2.13;;;6.80;99.90;;;;;;5074188;28;20198;-80
2021/12/01 18:46:29;;;;;;;6.30;2.20;;;6.90;99.90;;;;;;5076741;28;20214;-82
2021/12/01 18:49:08;;;;;;;6.03;2.10;;;6.90;99.90;;;;;;5062607;28;20213;-83
2021/12/01 18:51:35;;;;;;;4.37;2.33;;;6.90;99.90;;;;;;5058520;28;20552;-83
2021/12/01 18:54:25;;;;;;;8.37;3.43;;;7.00;99.90;;;;;;5056830;28;20199;-83
2021/12/01 18:57:10;;;;;;;5.88;2.95;;;7.00;99.90;;;;;;5073942;28;20453;-82
2021/12/01 18:59:52;;;;;;;9.93;3.07;;;7.00;99.90;;;;;;5056008;28;20237;-82
2021/12/01 19:02:39;;;;;;;3.40;2.70;;;7.10;99.90;;;;;;5078186;28;20222;-81
2021/12/01 19:19:02;;;;;;;10.03;2.87;;;6.70;99.90;;;;;;4997141;28;20216;-86
2021/12/01 19:39:21;;;;;;;4.10;1.93;;;6.70;99.90;;;;;;4995721;28;20285;-86
2021/12/01 19:45:59;;;;;;;3.73;2.40;;;6.60;99.90;;;;;;4927457;29;20215;-86
2021/12/01 19:48:59;;;;;;;3.00;2.40;;;6.60;99.90;;;;;;4938315;29;20437;-85
2021/12/01 19:51:54;;;;;;;2.60;2.17;;;6.60;99.90;;;;;;4908278;29;20323;-86
2021/12/01 19:58:35;;;;;;;4.23;2.23;;;6.60;99.90;;;;;;4900392;29;20216;-86
2021/12/01 20:27:36;;;;;;;6.97;2.90;;;6.60;99.90;;;;;;5015621;28;20201;-86
2021/12/01 20:43:40;;;;;;;6.77;2.63;;;6.60;99.90;;;;;;5018789;28;20208;-84
2021/12/01 21:14:45;;;;;;;7.13;3.10;;;6.60;99.90;;;;;;5097509;28;20210;-87
2021/12/01 21:29:35;;;;;;;2.73;2.20;;;6.60;99.90;;;;;;5073255;28;20253;-87
2021/12/01 21:48:24;;;;;;;6.30;3.07;;;6.40;99.90;;;;;;5058164;28;20203;-87
2021/12/01 21:51:15;;;;;;;8.70;3.30;;;6.40;99.90;;;;;;5054932;28;20207;-87
2021/12/01 21:54:02;;;;;;;8.90;2.83;;;6.40;99.90;;;;;;5056593;28;20203;-87
2021/12/01 21:56:40;;;;;;;7.30;2.53;;;6.40;99.90;;;;;;5054706;28;20223;-85
2021/12/01 21:59:27;;;;;;;7.67;2.90;;;6.50;99.90;;;;;;5056302;28;20191;-87
2021/12/01 22:02:08;;;;;;;5.07;3.37;;;6.50;99.90;;;;;;5055716;28;20230;-87
2021/12/01 22:04:42;;;;;;;6.80;2.47;;;6.40;99.90;;;;;;5056270;28;20214;-86
2021/12/01 22:07:16;;;;;;;6.83;2.87;;;6.50;99.90;;;;;;5055481;28;20306;-87
2021/12/01 22:09:47;;;;;;;5.03;2.40;;;6.50;99.90;;;;;;5054114;28;20203;-86
2021/12/01 22:12:19;;;;;;;11.47;2.67;;;6.50;99.90;;;;;;5056010;28;20206;-87
2021/12/01 22:14:56;;;;;;;7.30;2.27;;;6.40;99.90;;;;;;5056223;28;20191;-88
2021/12/01 22:17:41;;;;;;;7.80;2.60;;;6.40;99.90;;;;;;5056433;28;20278;-87
2021/12/01 22:20:15;;;;;;;5.67;2.57;;;6.40;99.90;;;;;;5055260;28;20211;-86
2021/12/01 22:22:54;;;;;;;8.73;3.38;;;6.30;99.90;;;;;;5054068;28;20427;-87
2021/12/01 22:25:29;;;;;;;5.93;2.40;;;6.50;99.90;;;;;;5056707;28;20226;-86
2021/12/01 22:28:05;;;;;;;12.43;3.17;;;6.40;99.90;;;;;;5051793;28;20203;-86
2021/12/01 22:33:28;;;;;;;3.07;1.73;;;6.40;99.90;;;;;;5032348;28;20230;-84
2021/12/01 22:36:01;;;;;;;3.83;2.00;;;6.40;99.90;;;;;;5029760;28;20271;-86
2021/12/01 22:38:30;;;;;;;5.67;1.70;;;6.30;99.90;;;;;;5029385;28;20242;-84
2021/12/01 22:40:59;;;;;;;4.57;2.20;;;6.30;99.90;;;;;;5030512;28;20204;-87
2021/12/01 22:53:45;;;;;;;7.10;2.10;;;6.20;99.90;;;;;;4995986;28;20192;-87
2021/12/01 22:56:28;;;;;;;3.57;1.40;;;6.30;99.90;;;;;;4978040;28;20251;-84
2021/12/01 22:59:04;;;;;;;6.53;1.83;;;6.20;99.90;;;;;;4994413;28;20205;-87
2021/12/01 23:01:34;;;;;;;10.13;2.67;;;6.30;99.90;;;;;;4994331;28;20221;-87
2021/12/01 23:04:15;;;;;;;3.47;1.33;;;6.30;99.90;;;;;;4995756;28;20233;-87
2021/12/01 23:06:54;;;;;;;5.13;1.80;;;6.30;99.90;;;;;;4993460;28;20471;-87
2021/12/01 23:09:35;;;;;;;5.30;1.90;;;6.20;99.90;;;;;;4994172;28;20197;-87
2021/12/01 23:12:09;;;;;;;3.47;1.70;;;6.30;99.90;;;;;;4978853;28;20224;-85
2021/12/01 23:15:00;;;;;;;3.33;1.70;;;6.20;99.90;;;;;;4994009;28;20201;-87
2021/12/01 23:17:33;;;;;;;6.13;1.60;;;6.20;99.90;;;;;;4992245;28;20255;-86
2021/12/01 23:20:26;;;;;;;2.47;1.70;;;6.30;99.90;;;;;;4994513;28;20201;-87
2021/12/01 23:23:02;;;;;;;5.27;1.43;;;6.20;99.90;;;;;;4995754;28;20220;-87
2021/12/01 23:28:32;;;;;;;5.15;1.50;;;6.30;99.90;;;;;;5032095;28;20469;-86
2021/12/01 23:31:11;;;;;;;5.27;1.43;;;6.30;99.90;;;;;;5032286;28;20231;-87
2021/12/01 23:34:13;;;;;;;4.13;1.80;;;6.10;99.90;;;;;;5035308;28;20200;-86
2021/12/01 23:37:09;;;;;;;7.43;1.33;;;6.10;99.90;;;;;;5037668;28;20199;-87
2021/12/01 23:42:57;;;;;;;3.83;1.30;;;5.90;99.90;;;;;;5036367;28;20203;-86
